メインページ
METAR-TAF:

METAR-TAF

空港 :

ヴィエンチャン, ラオス

ワットタイ国際空港

緯度: 17-57N, 経度: 102-34E, 海抜: 171m

現時点の気象観測

当レポートは34分前の04:30(UTC)に作成
の風 4kt
気温 30°C
湿度 75%
気圧 1012 hPa
視程: 7000m
高度1600ftの雲は散在している
高度4000ftの千切れ雲あり

METAR: VLVT 210430Z 09004KT 7000 SCT016 BKN040 30/25 Q1012 NOSIG

時間: 12:04 (05:04 UTC)

予報

当レポートは6時間4分前の23:00(UTC)に作成
予報は21日の 00時(UTC)から 21日の 24時(UTC)まで有効
東/北東の風 4kt
視程: 5000m
高度1600ftの雲はほとんどない
高度5000ftの雲は散在している
高度20000ftの雲はほとんどない
21日の 05時(UTC)から 21日の 10時(UTC)まで一時的に
視程: 8000m
高度1600ftの雲は散在している
高度5000ftの雲は散在している
高度20000ftの雲は散在している

TAF: VLVT 202300Z 2100/2124 06004KT 5000 BR FEW016 SCT050 FEW200 TEMPO 2105/2110 8000 SCT016 SCT050 SCT200

4,000以上の空港の気象観測と天気予報(METAR報とTAF報)

利用可能な観測所は地図上に黄色い丸と赤い丸で示す。

丸の上にカーソルを重ねると観測所名を参照できる。

次にクリックすると気象観測と天気予報を参照できる。

マップの切り替え:黒色「×」印の緑ボタンをクリックして拡大、「-」印の緑ボタンをクリックして縮小、緑色の三角印をクリックして隣りの地図に切り替え


METAR-TAF: